LGX57W EBAW-LIMJ
Flight info
| Callsign | LGX57W |
|---|---|
| Flight time | 1h 50m |
| Altitude | 23000 |
| Route | GILOM M624 DIK N852 SUTAL DCT GTQ DCT POGOL DCT LASAT DCT MOROK DCT GILIR DCT GEVEA DCT MOBLO DCT LURAG DCT VEROB DCT TOP M730 TESTO |
| Aircraft | SF34/M-SDFGRY/S |
Departure
| Time | 2026-04-18 08:42 |
|---|---|
| Airport | Antwerp International Airport (Deurne) (EBAW) |
Arrival
| Time | 2026-04-18 10:32 |
|---|---|
| Airport | Genoa Cristoforo Colombo Airport (LIMJ) |
| Time | Latitude | Longitude | Altitude | Speed | Heading |
|---|---|---|---|---|---|
| 2026-04-18 08:04 | 51.18783 | 4.45423 | 35 ft | 0 kts | 328° |
| 2026-04-18 08:35 | 51.18804 | 4.45410 | 34 ft | 7 kts | 358° |
| 2026-04-18 08:35 | 51.18811 | 4.45461 | 34 ft | 8 kts | 143° |
| 2026-04-18 08:35 | 51.18750 | 4.45538 | 35 ft | 14 kts | 103° |
| 2026-04-18 08:35 | 51.18721 | 4.45723 | 33 ft | 18 kts | 103° |
| 2026-04-18 08:36 | 51.18693 | 4.45904 | 32 ft | 15 kts | 104° |
| 2026-04-18 08:36 | 51.18671 | 4.46043 | 29 ft | 12 kts | 104° |
| 2026-04-18 08:36 | 51.18652 | 4.46169 | 27 ft | 11 kts | 104° |
| 2026-04-18 08:36 | 51.18636 | 4.46272 | 28 ft | 8 kts | 103° |
| 2026-04-18 08:37 | 51.18623 | 4.46356 | 27 ft | 7 kts | 103° |
| 2026-04-18 08:37 | 51.18610 | 4.46435 | 27 ft | 7 kts | 105° |
| 2026-04-18 08:37 | 51.18597 | 4.46510 | 27 ft | 7 kts | 104° |
| 2026-04-18 08:37 | 51.18585 | 4.46594 | 27 ft | 9 kts | 103° |
| 2026-04-18 08:38 | 51.18573 | 4.46711 | 26 ft | 11 kts | 91° |
| 2026-04-18 08:38 | 51.18582 | 4.46838 | 25 ft | 10 kts | 72° |
| 2026-04-18 08:38 | 51.18612 | 4.46947 | 25 ft | 11 kts | 60° |
| 2026-04-18 08:38 | 51.18658 | 4.47050 | 24 ft | 2 kts | 51° |
| 2026-04-18 08:39 | 51.18658 | 4.47051 | 24 ft | 0 kts | 51° |
| 2026-04-18 08:39 | 51.18672 | 4.47078 | 24 ft | 5 kts | 51° |
| 2026-04-18 08:39 | 51.18695 | 4.47127 | 24 ft | 0 kts | 52° |
| 2026-04-18 08:41 | 51.18696 | 4.47128 | 24 ft | 1 kts | 52° |
| 2026-04-18 08:41 | 51.18710 | 4.47157 | 24 ft | 5 kts | 52° |
| 2026-04-18 08:41 | 51.18739 | 4.47218 | 24 ft | 8 kts | 53° |
| 2026-04-18 08:41 | 51.18786 | 4.47238 | 24 ft | 9 kts | 313° |
| 2026-04-18 08:42 | 51.18890 | 4.46793 | 24 ft | 89 kts | 289° |
| 2026-04-18 08:42 | 51.19173 | 4.45561 | 156 ft | 134 kts | 290° |
| 2026-04-18 08:42 | 51.19495 | 4.44153 | 719 ft | 142 kts | 288° |
| 2026-04-18 08:42 | 51.19621 | 4.42577 | 1287 ft | 150 kts | 258° |
| 2026-04-18 08:43 | 51.19118 | 4.41143 | 1871 ft | 152 kts | 224° |
| 2026-04-18 08:43 | 51.18184 | 4.40387 | 2307 ft | 156 kts | 195° |
| 2026-04-18 08:43 | 51.17093 | 4.40371 | 2725 ft | 161 kts | 168° |
| 2026-04-18 08:43 | 51.16047 | 4.41057 | 3162 ft | 163 kts | 160° |
| 2026-04-18 08:44 | 51.14965 | 4.41484 | 3545 ft | 161 kts | 173° |
| 2026-04-18 08:44 | 51.13863 | 4.41711 | 3945 ft | 161 kts | 177° |
| 2026-04-18 08:44 | 51.12734 | 4.41845 | 4264 ft | 165 kts | 181° |
| 2026-04-18 08:44 | 51.11602 | 4.41931 | 4626 ft | 166 kts | 181° |
| 2026-04-18 08:45 | 51.10452 | 4.42004 | 5010 ft | 166 kts | 181° |
| 2026-04-18 08:45 | 51.09305 | 4.42295 | 5387 ft | 169 kts | 167° |
| 2026-04-18 08:45 | 51.08204 | 4.42924 | 5748 ft | 171 kts | 163° |
| 2026-04-18 08:45 | 51.07107 | 4.43592 | 6135 ft | 169 kts | 163° |
| 2026-04-18 08:46 | 51.06000 | 4.44265 | 6552 ft | 170 kts | 163° |
| 2026-04-18 08:46 | 51.04901 | 4.44932 | 6996 ft | 171 kts | 164° |
| 2026-04-18 08:46 | 51.03825 | 4.45775 | 7419 ft | 176 kts | 150° |
| 2026-04-18 08:46 | 51.02828 | 4.46904 | 7840 ft | 177 kts | 148° |
| 2026-04-18 08:47 | 51.01854 | 4.48041 | 8374 ft | 171 kts | 149° |
| 2026-04-18 08:47 | 51.00912 | 4.49134 | 8806 ft | 170 kts | 149° |
| 2026-04-18 08:47 | 50.99955 | 4.50244 | 9201 ft | 171 kts | 148° |
| 2026-04-18 08:47 | 50.98990 | 4.51361 | 9564 ft | 173 kts | 149° |
| 2026-04-18 08:48 | 50.98029 | 4.52475 | 9949 ft | 174 kts | 149° |
| 2026-04-18 08:48 | 50.97035 | 4.53625 | 10331 ft | 176 kts | 149° |
| 2026-04-18 08:48 | 50.96049 | 4.54767 | 10707 ft | 177 kts | 149° |
| 2026-04-18 08:48 | 50.95067 | 4.55903 | 11064 ft | 178 kts | 150° |
| 2026-04-18 08:49 | 50.94071 | 4.57053 | 11420 ft | 179 kts | 149° |
| 2026-04-18 08:49 | 50.93081 | 4.58196 | 11761 ft | 180 kts | 149° |
| 2026-04-18 08:49 | 50.92064 | 4.59371 | 12110 ft | 181 kts | 150° |
| 2026-04-18 08:49 | 50.91057 | 4.60535 | 12423 ft | 182 kts | 150° |
| 2026-04-18 08:50 | 50.90028 | 4.61719 | 12727 ft | 184 kts | 150° |
| 2026-04-18 08:50 | 50.88986 | 4.62920 | 13049 ft | 184 kts | 151° |
| 2026-04-18 08:50 | 50.87961 | 4.64100 | 13353 ft | 185 kts | 149° |
| 2026-04-18 08:50 | 50.86907 | 4.65311 | 13629 ft | 189 kts | 150° |
| 2026-04-18 08:51 | 50.85849 | 4.66534 | 13971 ft | 187 kts | 150° |
| 2026-04-18 08:51 | 50.84795 | 4.67746 | 14210 ft | 191 kts | 152° |
| 2026-04-18 08:51 | 50.83720 | 4.68980 | 14573 ft | 190 kts | 151° |
| 2026-04-18 08:51 | 50.82645 | 4.70215 | 14909 ft | 190 kts | 152° |
| 2026-04-18 08:52 | 50.81562 | 4.71461 | 15206 ft | 193 kts | 152° |
| 2026-04-18 08:52 | 50.80483 | 4.72696 | 15498 ft | 194 kts | 152° |
| 2026-04-18 08:52 | 50.79388 | 4.73954 | 15839 ft | 194 kts | 152° |
| 2026-04-18 08:52 | 50.78286 | 4.75216 | 16124 ft | 198 kts | 152° |
| 2026-04-18 08:53 | 50.77161 | 4.76498 | 16450 ft | 198 kts | 153° |
| 2026-04-18 08:53 | 50.76045 | 4.77776 | 16770 ft | 198 kts | 152° |
| 2026-04-18 08:53 | 50.74924 | 4.79052 | 17029 ft | 199 kts | 153° |
| 2026-04-18 08:53 | 50.73809 | 4.80323 | 17305 ft | 201 kts | 153° |
| 2026-04-18 08:54 | 50.72676 | 4.81609 | 17562 ft | 202 kts | 153° |
| 2026-04-18 08:54 | 50.71526 | 4.82917 | 17874 ft | 205 kts | 153° |
| 2026-04-18 08:54 | 50.70369 | 4.84234 | 18250 ft | 207 kts | 152° |
| 2026-04-18 08:54 | 50.69203 | 4.85563 | 18636 ft | 207 kts | 152° |
| 2026-04-18 08:55 | 50.68044 | 4.86885 | 18985 ft | 207 kts | 152° |
| 2026-04-18 08:55 | 50.66869 | 4.88225 | 19384 ft | 207 kts | 153° |
| 2026-04-18 08:55 | 50.65715 | 4.89540 | 19737 ft | 208 kts | 153° |
| 2026-04-18 08:55 | 50.64539 | 4.90879 | 20111 ft | 208 kts | 153° |
| 2026-04-18 08:56 | 50.63374 | 4.92207 | 20444 ft | 209 kts | 153° |
| 2026-04-18 08:56 | 50.62185 | 4.93557 | 20765 ft | 209 kts | 153° |
| 2026-04-18 08:56 | 50.61008 | 4.94890 | 21040 ft | 211 kts | 153° |
| 2026-04-18 08:56 | 50.59815 | 4.96243 | 21375 ft | 212 kts | 153° |
| 2026-04-18 08:57 | 50.57435 | 4.98939 | 21983 ft | 213 kts | 154° |
| 2026-04-18 08:57 | 50.56225 | 5.00305 | 22253 ft | 214 kts | 154° |
| 2026-04-18 08:57 | 50.55008 | 5.01684 | 22532 ft | 215 kts | 153° |
| 2026-04-18 08:58 | 50.53801 | 5.03051 | 22784 ft | 217 kts | 154° |
| 2026-04-18 08:58 | 50.52562 | 5.04452 | 23038 ft | 218 kts | 154° |
| 2026-04-18 08:58 | 50.51339 | 5.05831 | 23216 ft | 224 kts | 154° |
| 2026-04-18 08:58 | 50.50024 | 5.07307 | 23238 ft | 236 kts | 153° |
| 2026-04-18 08:59 | 50.48658 | 5.08846 | 23240 ft | 248 kts | 153° |
| 2026-04-18 08:59 | 50.47219 | 5.10465 | 23242 ft | 258 kts | 153° |
| 2026-04-18 08:59 | 50.45741 | 5.12132 | 23220 ft | 266 kts | 152° |
| 2026-04-18 08:59 | 50.44237 | 5.13826 | 23223 ft | 271 kts | 152° |
| 2026-04-18 09:00 | 50.42688 | 5.15578 | 23213 ft | 274 kts | 151° |
| 2026-04-18 09:00 | 50.41140 | 5.17325 | 23216 ft | 276 kts | 151° |
| 2026-04-18 09:00 | 50.39586 | 5.19078 | 23213 ft | 277 kts | 151° |
| 2026-04-18 09:00 | 50.38021 | 5.20838 | 23204 ft | 278 kts | 150° |
| 2026-04-18 09:01 | 50.36456 | 5.22595 | 23215 ft | 278 kts | 150° |
| 2026-04-18 09:01 | 50.34891 | 5.24350 | 23228 ft | 279 kts | 150° |
| 2026-04-18 09:01 | 50.33304 | 5.26125 | 23223 ft | 280 kts | 150° |
| 2026-04-18 09:01 | 50.31721 | 5.27896 | 23205 ft | 281 kts | 151° |
| 2026-04-18 09:02 | 50.30113 | 5.29690 | 23206 ft | 282 kts | 150° |
| 2026-04-18 09:02 | 50.28537 | 5.31449 | 23211 ft | 282 kts | 150° |
| 2026-04-18 09:02 | 50.26942 | 5.33229 | 23198 ft | 282 kts | 150° |
| 2026-04-18 09:02 | 50.25343 | 5.35011 | 23213 ft | 283 kts | 150° |
| 2026-04-18 09:03 | 50.23725 | 5.36813 | 23202 ft | 283 kts | 150° |
| 2026-04-18 09:03 | 50.22135 | 5.38581 | 23205 ft | 283 kts | 151° |
| 2026-04-18 09:03 | 50.20535 | 5.40358 | 23200 ft | 283 kts | 150° |
| 2026-04-18 09:03 | 50.18929 | 5.42138 | 23203 ft | 283 kts | 150° |
| 2026-04-18 09:04 | 50.17324 | 5.43916 | 23211 ft | 283 kts | 150° |
| 2026-04-18 09:04 | 50.15705 | 5.45710 | 23204 ft | 284 kts | 150° |
| 2026-04-18 09:04 | 50.14095 | 5.47491 | 23203 ft | 284 kts | 151° |
| 2026-04-18 09:04 | 50.12497 | 5.49256 | 23196 ft | 283 kts | 150° |
| 2026-04-18 09:05 | 50.10893 | 5.51030 | 23207 ft | 283 kts | 150° |
| 2026-04-18 09:05 | 50.09283 | 5.52809 | 23212 ft | 284 kts | 150° |
| 2026-04-18 09:05 | 50.07672 | 5.54589 | 23202 ft | 284 kts | 150° |
| 2026-04-18 09:05 | 50.06057 | 5.56372 | 23202 ft | 284 kts | 150° |
| 2026-04-18 09:06 | 50.04447 | 5.58155 | 23202 ft | 284 kts | 150° |
| 2026-04-18 09:06 | 50.02852 | 5.59917 | 23207 ft | 284 kts | 150° |
| 2026-04-18 09:06 | 50.01231 | 5.61702 | 23203 ft | 284 kts | 150° |
| 2026-04-18 09:06 | 49.99619 | 5.63475 | 23209 ft | 284 kts | 150° |
| 2026-04-18 09:07 | 49.97995 | 5.65259 | 23206 ft | 284 kts | 151° |
| 2026-04-18 09:07 | 49.96395 | 5.67014 | 23200 ft | 284 kts | 150° |
| 2026-04-18 09:07 | 49.94783 | 5.68783 | 23203 ft | 284 kts | 150° |
| 2026-04-18 09:07 | 49.93165 | 5.70556 | 23199 ft | 284 kts | 150° |
| 2026-04-18 09:08 | 49.91550 | 5.72325 | 23206 ft | 284 kts | 150° |
| 2026-04-18 09:08 | 49.89940 | 5.74089 | 23209 ft | 284 kts | 150° |
| 2026-04-18 09:08 | 49.88343 | 5.75834 | 23208 ft | 284 kts | 150° |
| 2026-04-18 09:08 | 49.86722 | 5.77605 | 23204 ft | 284 kts | 150° |
| 2026-04-18 09:09 | 49.85123 | 5.79349 | 23209 ft | 284 kts | 150° |
| 2026-04-18 09:09 | 49.83487 | 5.81133 | 23208 ft | 283 kts | 150° |
| 2026-04-18 09:09 | 49.81891 | 5.82873 | 23208 ft | 283 kts | 150° |
| 2026-04-18 09:09 | 49.80255 | 5.84652 | 23210 ft | 283 kts | 150° |
| 2026-04-18 09:10 | 49.78655 | 5.86393 | 23214 ft | 283 kts | 150° |
| 2026-04-18 09:10 | 49.77049 | 5.88138 | 23212 ft | 283 kts | 150° |
| 2026-04-18 09:10 | 49.75430 | 5.89895 | 23214 ft | 283 kts | 150° |
| 2026-04-18 09:10 | 49.73814 | 5.91648 | 23219 ft | 284 kts | 150° |
| 2026-04-18 09:11 | 49.72198 | 5.93399 | 23220 ft | 284 kts | 150° |
| 2026-04-18 09:11 | 49.70587 | 5.95144 | 23223 ft | 284 kts | 150° |
| 2026-04-18 09:11 | 49.68964 | 5.96902 | 23222 ft | 285 kts | 150° |
| 2026-04-18 09:11 | 49.67336 | 5.98661 | 23218 ft | 285 kts | 150° |
| 2026-04-18 09:12 | 49.65719 | 6.00407 | 23219 ft | 285 kts | 150° |
| 2026-04-18 09:12 | 49.64099 | 6.02156 | 23222 ft | 285 kts | 150° |
| 2026-04-18 09:12 | 49.62469 | 6.03914 | 23220 ft | 285 kts | 150° |
| 2026-04-18 09:12 | 49.60853 | 6.05655 | 23223 ft | 285 kts | 150° |
| 2026-04-18 09:13 | 49.59219 | 6.07416 | 23221 ft | 285 kts | 150° |
| 2026-04-18 09:13 | 49.57589 | 6.09169 | 23219 ft | 285 kts | 150° |
| 2026-04-18 09:13 | 49.55952 | 6.10929 | 23219 ft | 285 kts | 150° |
| 2026-04-18 09:13 | 49.54335 | 6.12665 | 23218 ft | 285 kts | 150° |
| 2026-04-18 09:14 | 49.52709 | 6.14410 | 23228 ft | 285 kts | 150° |
| 2026-04-18 09:14 | 49.51100 | 6.16136 | 23221 ft | 285 kts | 150° |
| 2026-04-18 09:14 | 49.49469 | 6.17883 | 23223 ft | 286 kts | 150° |
| 2026-04-18 09:14 | 49.47825 | 6.19642 | 23222 ft | 286 kts | 150° |
| 2026-04-18 09:15 | 49.46198 | 6.21383 | 23219 ft | 286 kts | 150° |
| 2026-04-18 09:15 | 49.44556 | 6.23133 | 23216 ft | 286 kts | 150° |
| 2026-04-18 09:15 | 49.42924 | 6.24869 | 23221 ft | 286 kts | 150° |
| 2026-04-18 09:15 | 49.41295 | 6.26605 | 23221 ft | 287 kts | 150° |
| 2026-04-18 09:16 | 49.39651 | 6.28358 | 23218 ft | 287 kts | 150° |
| 2026-04-18 09:16 | 49.38025 | 6.30091 | 23204 ft | 287 kts | 150° |
| 2026-04-18 09:16 | 49.36378 | 6.31851 | 23209 ft | 287 kts | 150° |
| 2026-04-18 09:16 | 49.34732 | 6.33604 | 23207 ft | 287 kts | 150° |
| 2026-04-18 09:17 | 49.33094 | 6.35346 | 23208 ft | 287 kts | 150° |
| 2026-04-18 09:17 | 49.31464 | 6.37077 | 23219 ft | 287 kts | 150° |
| 2026-04-18 09:17 | 49.29824 | 6.38816 | 23205 ft | 287 kts | 150° |
| 2026-04-18 09:17 | 49.28192 | 6.40546 | 23194 ft | 288 kts | 149° |
| 2026-04-18 09:18 | 49.26537 | 6.42299 | 23191 ft | 288 kts | 149° |
| 2026-04-18 09:18 | 49.24911 | 6.44019 | 23189 ft | 288 kts | 149° |
| 2026-04-18 09:18 | 49.23251 | 6.45775 | 23195 ft | 288 kts | 149° |
| 2026-04-18 09:18 | 49.21610 | 6.47510 | 23187 ft | 288 kts | 150° |
| 2026-04-18 09:19 | 49.19953 | 6.49258 | 23190 ft | 287 kts | 149° |
| 2026-04-18 09:19 | 49.18327 | 6.50973 | 23190 ft | 287 kts | 149° |
| 2026-04-18 09:19 | 49.16675 | 6.52714 | 23190 ft | 287 kts | 149° |
| 2026-04-18 09:19 | 49.15037 | 6.54438 | 23195 ft | 287 kts | 149° |
| 2026-04-18 09:20 | 49.13399 | 6.56161 | 23190 ft | 288 kts | 149° |
| 2026-04-18 09:20 | 49.11759 | 6.57886 | 23196 ft | 288 kts | 150° |
| 2026-04-18 09:20 | 49.10093 | 6.59634 | 23191 ft | 288 kts | 150° |
| 2026-04-18 09:20 | 49.08470 | 6.61338 | 23194 ft | 288 kts | 149° |
| 2026-04-18 09:21 | 49.06811 | 6.63078 | 23197 ft | 288 kts | 150° |
| 2026-04-18 09:21 | 49.05169 | 6.64798 | 23190 ft | 288 kts | 150° |
| 2026-04-18 09:21 | 49.03513 | 6.66529 | 23189 ft | 288 kts | 150° |
| 2026-04-18 09:21 | 49.01876 | 6.68239 | 23186 ft | 288 kts | 150° |
| 2026-04-18 09:22 | 49.00217 | 6.69973 | 23192 ft | 288 kts | 150° |
| 2026-04-18 09:22 | 48.98437 | 6.71198 | 23157 ft | 277 kts | 176° |
| 2026-04-18 09:22 | 48.96537 | 6.71424 | 23198 ft | 272 kts | 184° |
| 2026-04-18 09:22 | 48.94669 | 6.71419 | 23193 ft | 271 kts | 186° |
| 2026-04-18 09:23 | 48.92779 | 6.71371 | 23182 ft | 271 kts | 186° |
| 2026-04-18 09:23 | 48.90879 | 6.71310 | 23191 ft | 271 kts | 186° |
| 2026-04-18 09:23 | 48.88988 | 6.71242 | 23187 ft | 272 kts | 187° |
| 2026-04-18 09:23 | 48.87119 | 6.71170 | 23192 ft | 272 kts | 187° |
| 2026-04-18 09:24 | 48.85226 | 6.71096 | 23186 ft | 272 kts | 187° |
| 2026-04-18 09:24 | 48.83325 | 6.71022 | 23186 ft | 272 kts | 187° |
| 2026-04-18 09:24 | 48.81438 | 6.70947 | 23192 ft | 272 kts | 187° |
| 2026-04-18 09:24 | 48.79550 | 6.70873 | 23190 ft | 273 kts | 187° |
| 2026-04-18 09:25 | 48.77655 | 6.70801 | 23188 ft | 273 kts | 187° |
| 2026-04-18 09:25 | 48.75761 | 6.70728 | 23192 ft | 273 kts | 186° |
| 2026-04-18 09:25 | 48.73870 | 6.70656 | 23183 ft | 273 kts | 186° |
| 2026-04-18 09:25 | 48.71979 | 6.70580 | 23183 ft | 273 kts | 186° |
| 2026-04-18 09:26 | 48.70083 | 6.70503 | 23187 ft | 273 kts | 187° |
| 2026-04-18 09:26 | 48.68175 | 6.70425 | 23192 ft | 273 kts | 187° |
| 2026-04-18 09:26 | 48.66270 | 6.70348 | 23190 ft | 274 kts | 186° |
| 2026-04-18 09:26 | 48.64381 | 6.70276 | 23187 ft | 274 kts | 186° |
| 2026-04-18 09:27 | 48.62472 | 6.70203 | 23190 ft | 274 kts | 187° |
| 2026-04-18 09:27 | 48.60560 | 6.70129 | 23189 ft | 274 kts | 187° |
| 2026-04-18 09:27 | 48.58668 | 6.70054 | 23186 ft | 274 kts | 186° |
| 2026-04-18 09:27 | 48.56749 | 6.69979 | 23186 ft | 274 kts | 186° |
| 2026-04-18 09:28 | 48.54845 | 6.69907 | 23189 ft | 274 kts | 186° |
| 2026-04-18 09:28 | 48.52944 | 6.69837 | 23188 ft | 274 kts | 186° |
| 2026-04-18 09:28 | 48.51027 | 6.69765 | 23188 ft | 274 kts | 186° |
| 2026-04-18 09:28 | 48.49129 | 6.69691 | 23186 ft | 275 kts | 187° |
| 2026-04-18 09:29 | 48.47221 | 6.69617 | 23190 ft | 275 kts | 187° |
| 2026-04-18 09:29 | 48.45301 | 6.69543 | 23189 ft | 275 kts | 187° |
| 2026-04-18 09:29 | 48.43401 | 6.69470 | 23189 ft | 275 kts | 186° |
| 2026-04-18 09:29 | 48.41498 | 6.69397 | 23193 ft | 275 kts | 186° |
| 2026-04-18 09:30 | 48.39588 | 6.69323 | 23187 ft | 275 kts | 186° |
| 2026-04-18 09:30 | 48.37671 | 6.69249 | 23186 ft | 275 kts | 186° |
| 2026-04-18 09:30 | 48.35767 | 6.69175 | 23192 ft | 275 kts | 186° |
| 2026-04-18 09:30 | 48.33846 | 6.69101 | 23190 ft | 275 kts | 186° |
| 2026-04-18 09:31 | 48.31919 | 6.69027 | 23192 ft | 276 kts | 186° |
| 2026-04-18 09:31 | 48.30025 | 6.68956 | 23191 ft | 276 kts | 186° |
| 2026-04-18 09:31 | 48.28113 | 6.68885 | 23199 ft | 276 kts | 186° |
| 2026-04-18 09:31 | 48.26181 | 6.68812 | 23191 ft | 276 kts | 186° |
| 2026-04-18 09:32 | 48.24263 | 6.68739 | 23186 ft | 276 kts | 186° |
| 2026-04-18 09:32 | 48.22368 | 6.68667 | 23192 ft | 276 kts | 186° |
| 2026-04-18 09:32 | 48.20451 | 6.68594 | 23193 ft | 276 kts | 186° |
| 2026-04-18 09:32 | 48.18522 | 6.68520 | 23192 ft | 276 kts | 186° |
| 2026-04-18 09:33 | 48.16596 | 6.68446 | 23188 ft | 276 kts | 186° |
| 2026-04-18 09:33 | 48.14687 | 6.68373 | 23198 ft | 276 kts | 186° |
| 2026-04-18 09:33 | 48.12758 | 6.68299 | 23196 ft | 276 kts | 186° |
| 2026-04-18 09:33 | 48.10847 | 6.68227 | 23199 ft | 276 kts | 186° |
| 2026-04-18 09:34 | 48.08911 | 6.68154 | 23200 ft | 276 kts | 186° |
| 2026-04-18 09:34 | 48.07001 | 6.68082 | 23191 ft | 276 kts | 186° |
| 2026-04-18 09:34 | 48.05083 | 6.68008 | 23189 ft | 276 kts | 186° |
| 2026-04-18 09:34 | 48.03163 | 6.67936 | 23197 ft | 276 kts | 186° |
| 2026-04-18 09:35 | 48.01243 | 6.67863 | 23200 ft | 277 kts | 186° |
| 2026-04-18 09:35 | 47.99330 | 6.67790 | 23203 ft | 277 kts | 186° |
| 2026-04-18 09:35 | 47.97409 | 6.67717 | 23204 ft | 277 kts | 186° |
| 2026-04-18 09:35 | 47.95468 | 6.67641 | 23199 ft | 277 kts | 186° |
| 2026-04-18 09:36 | 47.93530 | 6.67565 | 23199 ft | 278 kts | 186° |
| 2026-04-18 09:36 | 47.91610 | 6.67491 | 23198 ft | 278 kts | 186° |
| 2026-04-18 09:36 | 47.89655 | 6.67415 | 23200 ft | 278 kts | 186° |
| 2026-04-18 09:36 | 47.87745 | 6.67344 | 23201 ft | 278 kts | 186° |
| 2026-04-18 09:37 | 47.85802 | 6.67276 | 23197 ft | 278 kts | 186° |
| 2026-04-18 09:37 | 47.83877 | 6.67205 | 23203 ft | 277 kts | 186° |
| 2026-04-18 09:37 | 47.81951 | 6.67130 | 23197 ft | 278 kts | 186° |
| 2026-04-18 09:37 | 47.80020 | 6.67056 | 23200 ft | 278 kts | 186° |
| 2026-04-18 09:38 | 47.78091 | 6.66982 | 23196 ft | 278 kts | 186° |
| 2026-04-18 09:38 | 47.76160 | 6.66910 | 23196 ft | 279 kts | 186° |
| 2026-04-18 09:38 | 47.74214 | 6.66839 | 23197 ft | 279 kts | 186° |
| 2026-04-18 09:38 | 47.72267 | 6.66765 | 23191 ft | 279 kts | 186° |
| 2026-04-18 09:39 | 47.70325 | 6.66691 | 23195 ft | 279 kts | 186° |
| 2026-04-18 09:39 | 47.68379 | 6.66618 | 23186 ft | 280 kts | 186° |
| 2026-04-18 09:39 | 47.66435 | 6.66545 | 23203 ft | 279 kts | 186° |
| 2026-04-18 09:39 | 47.64497 | 6.66473 | 23211 ft | 279 kts | 186° |
| 2026-04-18 09:40 | 47.62555 | 6.66401 | 23210 ft | 279 kts | 186° |
| 2026-04-18 09:40 | 47.60600 | 6.66327 | 23216 ft | 279 kts | 186° |
| 2026-04-18 09:40 | 47.58678 | 6.66256 | 23214 ft | 279 kts | 186° |
| 2026-04-18 09:40 | 47.56730 | 6.66186 | 23209 ft | 279 kts | 186° |
| 2026-04-18 09:41 | 47.54774 | 6.66169 | 23203 ft | 281 kts | 180° |
| 2026-04-18 09:41 | 47.52834 | 6.66522 | 23208 ft | 283 kts | 176° |
| 2026-04-18 09:41 | 47.50872 | 6.66949 | 23207 ft | 283 kts | 176° |
| 2026-04-18 09:41 | 47.48937 | 6.67374 | 23218 ft | 283 kts | 176° |
| 2026-04-18 09:42 | 47.46984 | 6.67803 | 23218 ft | 283 kts | 176° |
| 2026-04-18 09:42 | 47.45042 | 6.68228 | 23216 ft | 283 kts | 176° |
| 2026-04-18 09:42 | 47.43084 | 6.68657 | 23215 ft | 284 kts | 176° |
| 2026-04-18 09:42 | 47.41128 | 6.69086 | 23220 ft | 284 kts | 175° |
| 2026-04-18 09:43 | 47.39173 | 6.69513 | 23219 ft | 284 kts | 175° |
| 2026-04-18 09:43 | 47.37219 | 6.69941 | 23222 ft | 284 kts | 175° |
| 2026-04-18 09:43 | 47.35265 | 6.70368 | 23223 ft | 284 kts | 175° |
| 2026-04-18 09:43 | 47.33316 | 6.70794 | 23227 ft | 284 kts | 176° |
| 2026-04-18 09:44 | 47.31354 | 6.71222 | 23247 ft | 284 kts | 176° |
| 2026-04-18 09:44 | 47.29415 | 6.71644 | 23251 ft | 284 kts | 176° |
| 2026-04-18 09:44 | 47.27462 | 6.72070 | 23247 ft | 284 kts | 176° |
| 2026-04-18 09:44 | 47.25485 | 6.72500 | 23254 ft | 284 kts | 176° |
| 2026-04-18 09:45 | 47.23550 | 6.72921 | 23250 ft | 285 kts | 176° |
| 2026-04-18 09:45 | 47.21581 | 6.73350 | 23249 ft | 285 kts | 176° |
| 2026-04-18 09:45 | 47.19624 | 6.73779 | 23244 ft | 285 kts | 176° |
| 2026-04-18 09:45 | 47.17647 | 6.74207 | 23251 ft | 285 kts | 176° |
| 2026-04-18 09:46 | 47.15704 | 6.74627 | 23252 ft | 285 kts | 176° |
| 2026-04-18 09:46 | 47.13738 | 6.75051 | 23251 ft | 285 kts | 176° |
| 2026-04-18 09:46 | 47.11758 | 6.75474 | 23252 ft | 286 kts | 176° |
| 2026-04-18 09:46 | 47.09798 | 6.75892 | 23248 ft | 286 kts | 175° |
| 2026-04-18 09:47 | 47.07842 | 6.76318 | 23252 ft | 286 kts | 175° |
| 2026-04-18 09:47 | 47.05860 | 6.76749 | 23251 ft | 286 kts | 175° |
| 2026-04-18 09:47 | 47.03888 | 6.77176 | 23247 ft | 286 kts | 176° |
| 2026-04-18 09:47 | 47.01911 | 6.77602 | 23253 ft | 286 kts | 176° |
| 2026-04-18 09:48 | 46.99950 | 6.78027 | 23249 ft | 286 kts | 175° |
| 2026-04-18 09:48 | 46.97962 | 6.78456 | 23251 ft | 287 kts | 175° |
| 2026-04-18 09:48 | 46.96012 | 6.78876 | 23243 ft | 287 kts | 175° |
| 2026-04-18 09:48 | 46.94031 | 6.79303 | 23245 ft | 288 kts | 175° |
| 2026-04-18 09:49 | 46.92041 | 6.79732 | 23241 ft | 288 kts | 175° |
| 2026-04-18 09:49 | 46.90075 | 6.80153 | 23241 ft | 288 kts | 175° |
| 2026-04-18 09:49 | 46.88113 | 6.80574 | 23235 ft | 289 kts | 175° |
| 2026-04-18 09:49 | 46.86133 | 6.80998 | 23235 ft | 289 kts | 175° |
| 2026-04-18 09:50 | 46.84138 | 6.81426 | 23233 ft | 289 kts | 175° |
| 2026-04-18 09:50 | 46.82147 | 6.81853 | 23235 ft | 289 kts | 175° |
| 2026-04-18 09:50 | 46.80167 | 6.82277 | 23223 ft | 289 kts | 175° |
| 2026-04-18 09:50 | 46.78167 | 6.82704 | 23229 ft | 289 kts | 175° |
| 2026-04-18 09:51 | 46.76154 | 6.83134 | 23229 ft | 289 kts | 175° |
| 2026-04-18 09:51 | 46.74172 | 6.83557 | 23229 ft | 289 kts | 175° |
| 2026-04-18 09:51 | 46.72189 | 6.83979 | 23228 ft | 289 kts | 175° |
| 2026-04-18 09:51 | 46.70186 | 6.84405 | 23228 ft | 289 kts | 175° |
| 2026-04-18 09:52 | 46.68215 | 6.84823 | 23221 ft | 289 kts | 175° |
| 2026-04-18 09:52 | 46.66195 | 6.85251 | 23201 ft | 290 kts | 175° |
| 2026-04-18 09:52 | 46.64206 | 6.85674 | 23209 ft | 289 kts | 175° |
| 2026-04-18 09:52 | 46.62203 | 6.86100 | 23215 ft | 289 kts | 175° |
| 2026-04-18 09:53 | 46.60236 | 6.86516 | 23225 ft | 290 kts | 175° |
| 2026-04-18 09:53 | 46.58216 | 6.86947 | 23213 ft | 290 kts | 175° |
| 2026-04-18 09:53 | 46.56217 | 6.87372 | 23235 ft | 290 kts | 175° |
| 2026-04-18 09:53 | 46.54225 | 6.87794 | 23225 ft | 290 kts | 174° |
| 2026-04-18 09:54 | 46.52254 | 6.88214 | 23265 ft | 289 kts | 174° |
| 2026-04-18 09:54 | 46.50237 | 6.88642 | 23266 ft | 290 kts | 175° |
| 2026-04-18 09:54 | 46.48249 | 6.89063 | 23255 ft | 291 kts | 175° |
| 2026-04-18 09:54 | 46.46227 | 6.89490 | 23259 ft | 291 kts | 174° |
| 2026-04-18 09:55 | 46.44223 | 6.89913 | 23262 ft | 291 kts | 175° |
| 2026-04-18 09:55 | 46.42213 | 6.90338 | 23252 ft | 292 kts | 175° |
| 2026-04-18 09:55 | 46.40189 | 6.90764 | 23246 ft | 292 kts | 175° |
| 2026-04-18 09:55 | 46.38179 | 6.91188 | 23250 ft | 292 kts | 175° |
| 2026-04-18 09:56 | 46.36182 | 6.91608 | 23240 ft | 293 kts | 175° |
| 2026-04-18 09:56 | 46.34163 | 6.92033 | 23225 ft | 293 kts | 175° |
| 2026-04-18 09:56 | 46.32144 | 6.92457 | 23215 ft | 293 kts | 175° |
| 2026-04-18 09:56 | 46.30116 | 6.92883 | 23227 ft | 293 kts | 175° |
| 2026-04-18 09:57 | 46.28091 | 6.93308 | 23230 ft | 293 kts | 175° |
| 2026-04-18 09:57 | 46.26086 | 6.93729 | 23233 ft | 293 kts | 175° |
| 2026-04-18 09:57 | 46.24068 | 6.94151 | 23226 ft | 293 kts | 174° |
| 2026-04-18 09:57 | 46.22043 | 6.94575 | 23222 ft | 293 kts | 174° |
| 2026-04-18 09:58 | 46.20010 | 6.95001 | 23237 ft | 292 kts | 174° |
| 2026-04-18 09:58 | 46.18013 | 6.95418 | 23262 ft | 292 kts | 174° |
| 2026-04-18 09:58 | 46.15997 | 6.95839 | 23262 ft | 292 kts | 174° |
| 2026-04-18 09:58 | 46.13977 | 6.96261 | 23265 ft | 293 kts | 174° |
| 2026-04-18 09:59 | 46.11954 | 6.96683 | 23254 ft | 294 kts | 174° |
| 2026-04-18 09:59 | 46.09904 | 6.97110 | 23247 ft | 294 kts | 174° |
| 2026-04-18 09:59 | 46.07894 | 6.97529 | 23270 ft | 293 kts | 174° |
| 2026-04-18 10:00 | 46.03847 | 6.98372 | 23270 ft | 295 kts | 174° |
| 2026-04-18 10:00 | 46.01809 | 6.98795 | 23277 ft | 295 kts | 174° |
| 2026-04-18 10:00 | 45.99783 | 6.99213 | 23289 ft | 295 kts | 175° |
| 2026-04-18 10:00 | 45.97745 | 6.99636 | 23290 ft | 295 kts | 174° |
| 2026-04-18 10:01 | 45.95692 | 7.00063 | 23292 ft | 295 kts | 174° |
| 2026-04-18 10:01 | 45.93675 | 7.00481 | 23264 ft | 296 kts | 174° |
| 2026-04-18 10:01 | 45.91628 | 7.00906 | 23227 ft | 297 kts | 174° |
| 2026-04-18 10:01 | 45.89567 | 7.01332 | 23209 ft | 296 kts | 174° |
| 2026-04-18 10:02 | 45.87542 | 7.01751 | 23251 ft | 295 kts | 174° |
| 2026-04-18 10:02 | 45.85534 | 7.02166 | 23266 ft | 294 kts | 174° |
| 2026-04-18 10:02 | 45.83495 | 7.02587 | 23255 ft | 294 kts | 174° |
| 2026-04-18 10:02 | 45.81467 | 7.03005 | 23213 ft | 295 kts | 174° |
| 2026-04-18 10:03 | 45.79417 | 7.03428 | 23194 ft | 295 kts | 174° |
| 2026-04-18 10:03 | 45.77403 | 7.03842 | 23182 ft | 295 kts | 173° |
| 2026-04-18 10:03 | 45.75347 | 7.04266 | 23195 ft | 295 kts | 173° |
| 2026-04-18 10:03 | 45.73337 | 7.04680 | 23224 ft | 294 kts | 174° |
| 2026-04-18 10:04 | 45.71287 | 7.05101 | 23186 ft | 296 kts | 173° |
| 2026-04-18 10:04 | 45.69256 | 7.05519 | 23201 ft | 295 kts | 174° |
| 2026-04-18 10:04 | 45.67238 | 7.05933 | 23199 ft | 295 kts | 174° |
| 2026-04-18 10:04 | 45.65203 | 7.06351 | 23256 ft | 293 kts | 174° |
| 2026-04-18 10:05 | 45.63179 | 7.06766 | 23247 ft | 294 kts | 174° |
| 2026-04-18 10:05 | 45.61162 | 7.07178 | 23204 ft | 296 kts | 174° |
| 2026-04-18 10:05 | 45.59108 | 7.07598 | 23203 ft | 295 kts | 174° |
| 2026-04-18 10:05 | 45.57093 | 7.08011 | 23259 ft | 293 kts | 174° |
| 2026-04-18 10:06 | 45.55057 | 7.08426 | 23253 ft | 294 kts | 174° |
| 2026-04-18 10:06 | 45.53071 | 7.09094 | 23217 ft | 297 kts | 154° |
| 2026-04-18 10:06 | 45.51392 | 7.10780 | 23282 ft | 295 kts | 139° |
| 2026-04-18 10:06 | 45.49832 | 7.12739 | 23255 ft | 296 kts | 137° |
| 2026-04-18 10:07 | 45.48320 | 7.14688 | 23286 ft | 297 kts | 137° |
| 2026-04-18 10:07 | 45.46769 | 7.16693 | 23274 ft | 298 kts | 137° |
| 2026-04-18 10:07 | 45.45239 | 7.18676 | 23270 ft | 298 kts | 137° |
| 2026-04-18 10:07 | 45.43716 | 7.20650 | 23268 ft | 298 kts | 137° |
| 2026-04-18 10:08 | 45.42174 | 7.22649 | 23262 ft | 298 kts | 137° |
| 2026-04-18 10:08 | 45.40641 | 7.24632 | 23259 ft | 298 kts | 137° |
| 2026-04-18 10:08 | 45.39126 | 7.26591 | 23281 ft | 298 kts | 137° |
| 2026-04-18 10:08 | 45.37572 | 7.28599 | 23261 ft | 298 kts | 137° |
| 2026-04-18 10:09 | 45.36034 | 7.30584 | 23230 ft | 299 kts | 137° |
| 2026-04-18 10:09 | 45.34501 | 7.32562 | 23186 ft | 301 kts | 137° |
| 2026-04-18 10:09 | 45.32944 | 7.34569 | 23189 ft | 299 kts | 136° |
| 2026-04-18 10:09 | 45.31420 | 7.36536 | 23240 ft | 297 kts | 136° |
| 2026-04-18 10:10 | 45.29877 | 7.38523 | 23219 ft | 299 kts | 136° |
| 2026-04-18 10:10 | 45.28339 | 7.40506 | 23184 ft | 300 kts | 136° |
| 2026-04-18 10:10 | 45.26804 | 7.42483 | 23178 ft | 300 kts | 136° |
| 2026-04-18 10:10 | 45.25261 | 7.44465 | 23181 ft | 299 kts | 136° |
| 2026-04-18 10:11 | 45.23715 | 7.46451 | 23178 ft | 299 kts | 136° |
| 2026-04-18 10:11 | 45.22160 | 7.48446 | 23174 ft | 299 kts | 136° |
| 2026-04-18 10:11 | 45.20624 | 7.50415 | 23180 ft | 298 kts | 136° |
| 2026-04-18 10:11 | 45.19079 | 7.52395 | 23181 ft | 298 kts | 136° |
| 2026-04-18 10:12 | 45.17553 | 7.54350 | 23180 ft | 297 kts | 136° |
| 2026-04-18 10:12 | 45.16026 | 7.56302 | 23176 ft | 297 kts | 136° |
| 2026-04-18 10:12 | 45.14475 | 7.58283 | 23180 ft | 297 kts | 136° |
| 2026-04-18 10:12 | 45.12947 | 7.60233 | 23179 ft | 297 kts | 137° |
| 2026-04-18 10:13 | 45.11404 | 7.62205 | 23181 ft | 297 kts | 136° |
| 2026-04-18 10:13 | 45.09856 | 7.64180 | 23177 ft | 298 kts | 136° |
| 2026-04-18 10:13 | 45.08328 | 7.66129 | 23174 ft | 298 kts | 137° |
| 2026-04-18 10:13 | 45.06805 | 7.68068 | 23177 ft | 297 kts | 137° |
| 2026-04-18 10:14 | 45.05264 | 7.70029 | 23176 ft | 297 kts | 137° |
| 2026-04-18 10:14 | 45.03730 | 7.71981 | 23176 ft | 297 kts | 137° |
| 2026-04-18 10:14 | 45.02211 | 7.73911 | 23177 ft | 297 kts | 137° |
| 2026-04-18 10:14 | 45.00660 | 7.75881 | 23013 ft | 300 kts | 137° |
| 2026-04-18 10:15 | 44.99100 | 7.77861 | 22763 ft | 302 kts | 137° |
| 2026-04-18 10:15 | 44.97539 | 7.79839 | 22442 ft | 304 kts | 137° |
| 2026-04-18 10:15 | 44.95962 | 7.81838 | 22068 ft | 306 kts | 137° |
| 2026-04-18 10:15 | 44.94389 | 7.83830 | 21695 ft | 306 kts | 137° |
| 2026-04-18 10:16 | 44.92840 | 7.85875 | 21303 ft | 306 kts | 129° |
| 2026-04-18 10:16 | 44.91668 | 7.88340 | 20941 ft | 302 kts | 118° |
| 2026-04-18 10:16 | 44.90633 | 7.90888 | 20565 ft | 299 kts | 117° |
| 2026-04-18 10:16 | 44.89613 | 7.93425 | 20186 ft | 296 kts | 117° |
| 2026-04-18 10:17 | 44.88591 | 7.95963 | 19755 ft | 294 kts | 117° |
| 2026-04-18 10:17 | 44.87596 | 7.98426 | 19401 ft | 292 kts | 117° |
| 2026-04-18 10:17 | 44.86589 | 8.00917 | 19040 ft | 291 kts | 117° |
| 2026-04-18 10:17 | 44.85591 | 8.03384 | 18654 ft | 289 kts | 117° |
| 2026-04-18 10:18 | 44.84610 | 8.05807 | 18279 ft | 287 kts | 117° |
| 2026-04-18 10:18 | 44.83627 | 8.08231 | 17901 ft | 286 kts | 118° |
| 2026-04-18 10:18 | 44.82647 | 8.10645 | 17519 ft | 284 kts | 118° |
| 2026-04-18 10:18 | 44.81668 | 8.13056 | 17135 ft | 283 kts | 118° |
| 2026-04-18 10:19 | 44.80682 | 8.15482 | 16759 ft | 282 kts | 118° |
| 2026-04-18 10:19 | 44.79710 | 8.17869 | 16379 ft | 281 kts | 117° |
| 2026-04-18 10:19 | 44.78741 | 8.20251 | 16009 ft | 280 kts | 117° |
| 2026-04-18 10:19 | 44.77775 | 8.22622 | 15639 ft | 279 kts | 117° |
| 2026-04-18 10:20 | 44.76811 | 8.24985 | 15271 ft | 279 kts | 117° |
| 2026-04-18 10:20 | 44.75845 | 8.27351 | 14897 ft | 278 kts | 117° |
| 2026-04-18 10:20 | 44.74888 | 8.29693 | 14527 ft | 277 kts | 117° |
| 2026-04-18 10:20 | 44.73925 | 8.32049 | 14158 ft | 276 kts | 117° |
| 2026-04-18 10:21 | 44.72978 | 8.34361 | 13784 ft | 276 kts | 117° |
| 2026-04-18 10:21 | 44.72021 | 8.36700 | 13419 ft | 275 kts | 117° |
| 2026-04-18 10:21 | 44.71065 | 8.39032 | 13055 ft | 274 kts | 117° |
| 2026-04-18 10:21 | 44.70116 | 8.41343 | 12693 ft | 274 kts | 117° |
| 2026-04-18 10:22 | 44.69172 | 8.43643 | 12328 ft | 273 kts | 117° |
| 2026-04-18 10:22 | 44.68219 | 8.45963 | 11949 ft | 273 kts | 117° |
| 2026-04-18 10:22 | 44.67272 | 8.48265 | 11572 ft | 272 kts | 118° |
| 2026-04-18 10:22 | 44.66328 | 8.50559 | 11203 ft | 272 kts | 118° |
| 2026-04-18 10:23 | 44.65391 | 8.52834 | 10848 ft | 271 kts | 118° |
| 2026-04-18 10:23 | 44.64408 | 8.55106 | 10460 ft | 272 kts | 126° |
| 2026-04-18 10:23 | 44.62965 | 8.56803 | 10178 ft | 269 kts | 144° |
| 2026-04-18 10:23 | 44.61445 | 8.58257 | 10128 ft | 258 kts | 144° |
| 2026-04-18 10:24 | 44.59992 | 8.59633 | 10123 ft | 249 kts | 144° |
| 2026-04-18 10:24 | 44.58558 | 8.60981 | 9862 ft | 253 kts | 144° |
| 2026-04-18 10:24 | 44.57061 | 8.62378 | 9502 ft | 259 kts | 145° |
| 2026-04-18 10:24 | 44.55550 | 8.63793 | 9145 ft | 262 kts | 145° |
| 2026-04-18 10:25 | 44.54050 | 8.65261 | 8784 ft | 263 kts | 143° |
| 2026-04-18 10:25 | 44.52596 | 8.66766 | 8332 ft | 258 kts | 142° |
| 2026-04-18 10:25 | 44.51176 | 8.68246 | 7823 ft | 249 kts | 142° |
| 2026-04-18 10:25 | 44.49834 | 8.69644 | 7316 ft | 238 kts | 142° |
| 2026-04-18 10:26 | 44.48537 | 8.70995 | 6809 ft | 229 kts | 142° |
| 2026-04-18 10:26 | 44.47276 | 8.72304 | 6303 ft | 222 kts | 142° |
| 2026-04-18 10:26 | 44.46043 | 8.73583 | 5798 ft | 217 kts | 142° |
| 2026-04-18 10:26 | 44.44842 | 8.74826 | 5297 ft | 212 kts | 142° |
| 2026-04-18 10:27 | 44.43676 | 8.76033 | 4803 ft | 209 kts | 142° |
| 2026-04-18 10:27 | 44.42512 | 8.77234 | 4305 ft | 205 kts | 142° |
| 2026-04-18 10:27 | 44.41401 | 8.78423 | 3814 ft | 202 kts | 140° |
| 2026-04-18 10:27 | 44.40305 | 8.79651 | 3342 ft | 197 kts | 140° |
| 2026-04-18 10:28 | 44.39288 | 8.80834 | 3074 ft | 185 kts | 135° |
| 2026-04-18 10:28 | 44.38550 | 8.82265 | 2550 ft | 189 kts | 114° |
| 2026-04-18 10:28 | 44.38156 | 8.84015 | 2126 ft | 185 kts | 105° |
| 2026-04-18 10:28 | 44.37779 | 8.85639 | 2002 ft | 165 kts | 110° |
| 2026-04-18 10:29 | 44.37452 | 8.87005 | 2000 ft | 142 kts | 109° |
| 2026-04-18 10:29 | 44.37161 | 8.88302 | 1804 ft | 141 kts | 107° |
| 2026-04-18 10:29 | 44.36892 | 8.89655 | 1548 ft | 143 kts | 106° |
| 2026-04-18 10:29 | 44.36627 | 8.90975 | 1343 ft | 141 kts | 104° |
| 2026-04-18 10:30 | 44.36772 | 8.92316 | 1083 ft | 145 kts | 60° |
| 2026-04-18 10:30 | 44.37492 | 8.93223 | 966 ft | 139 kts | 29° |
| 2026-04-18 10:30 | 44.38403 | 8.93527 | 851 ft | 132 kts | 356° |
| 2026-04-18 10:30 | 44.39188 | 8.92980 | 731 ft | 130 kts | 306° |
| 2026-04-18 10:31 | 44.39643 | 8.91921 | 679 ft | 127 kts | 295° |
| 2026-04-18 10:31 | 44.39947 | 8.90771 | 648 ft | 124 kts | 283° |
| 2026-04-18 10:31 | 44.40136 | 8.89584 | 595 ft | 127 kts | 284° |
| 2026-04-18 10:31 | 44.40370 | 8.88374 | 460 ft | 132 kts | 284° |
| 2026-04-18 10:32 | 44.40618 | 8.87112 | 272 ft | 134 kts | 284° |
| 2026-04-18 10:32 | 44.40864 | 8.85891 | 85 ft | 131 kts | 285° |
| 2026-04-18 10:32 | 44.41091 | 8.84720 | 9 ft | 105 kts | 286° |
| 2026-04-18 10:32 | 44.41232 | 8.84023 | 4 ft | 45 kts | 286° |
| 2026-04-18 10:33 | 44.41328 | 8.83768 | 4 ft | 17 kts | 323° |
| 2026-04-18 10:33 | 44.41418 | 8.83807 | 4 ft | 16 kts | 78° |
| 2026-04-18 10:33 | 44.41394 | 8.83960 | 4 ft | 16 kts | 105° |
| 2026-04-18 10:33 | 44.41365 | 8.84117 | 4 ft | 17 kts | 104° |
| 2026-04-18 10:34 | 44.41332 | 8.84279 | 4 ft | 17 kts | 106° |
| 2026-04-18 10:34 | 44.41328 | 8.84430 | 6 ft | 15 kts | 51° |
| 2026-04-18 10:34 | 44.41395 | 8.84552 | 9 ft | 16 kts | 48° |
| 2026-04-18 10:34 | 44.41447 | 8.84617 | 11 ft | 7 kts | 335° |
| 2026-04-18 10:35 | 44.41491 | 8.84571 | 10 ft | 4 kts | 321° |
| 2026-04-18 10:35 | 44.41496 | 8.84566 | 10 ft | 0 kts | 322° |